Terminal Aerodrome Forecast
Issued by NWS Cleveland, OH

Home | Current Version | Previous Version | Graphics & Text | Print | Product List | Glossary On
Versions: 1 2 3 4 5 6 7 8 9 10 11 12 13 14 15 16 17 18 19 20 21 22
947
FTUS41 KCLE 281915 AAA
TAFYNG
TAF AMD
KYNG 281915Z 2819/2918 32010KT P6SM OVC007
     FM282100 36010KT P6SM OVC012
     FM290300 36005KT P6SM OVC008
     FM290700 01005KT 5SM BR OVC006
     FM291300 01008KT P6SM OVC012
     FM291600 02008KT P6SM BKN020=

USA.gov is the U.S. government's official web portal to all federal, state and local government web resources and services.